createdAt,value
2023-02-09T00:02:23.953Z,51.77
2023-02-09T00:04:50.675Z,54.23
2023-02-09T00:07:17.330Z,54.27
2023-02-09T00:09:45.384Z,54.37
2023-02-09T00:12:30.743Z,48.33
2023-02-09T00:14:57.341Z,63.70
2023-02-09T00:17:24.049Z,58.90
2023-02-09T00:19:50.677Z,56.77
2023-02-09T00:22:17.300Z,54.33
2023-02-09T00:24:43.997Z,50.33
2023-02-09T00:27:10.727Z,55.37
2023-02-09T00:29:37.453Z,43.40
2023-02-09T00:32:04.423Z,55.77
2023-02-09T00:34:31.108Z,52.40
2023-02-09T00:36:57.812Z,50.13
2023-02-09T00:39:24.457Z,56.67
2023-02-09T00:42:06.200Z,56.90
2023-02-09T00:44:37.940Z,50.97
2023-02-09T00:47:06.732Z,54.77
2023-02-09T00:49:33.827Z,53.43
2023-02-09T00:52:00.723Z,51.80
2023-02-09T00:54:27.591Z,57.87
2023-02-09T00:56:58.701Z,48.77
2023-02-09T00:59:26.091Z,56.13
2023-02-09T01:01:52.767Z,56.70
2023-02-09T01:04:19.421Z,50.67
2023-02-09T01:06:46.126Z,51.60
2023-02-09T01:09:12.848Z,55.40
2023-02-09T01:11:39.524Z,41.17
2023-02-09T01:14:06.310Z,52.50
2023-02-09T01:16:33.077Z,52.13
2023-02-09T01:19:01.906Z,49.10
2023-02-09T01:21:30.571Z,61.43
2023-02-09T01:23:57.918Z,56.03
2023-02-09T01:26:24.601Z,49.43
2023-02-09T01:28:53.140Z,44.57
2023-02-09T01:31:32.029Z,54.37
2023-02-09T01:34:01.042Z,54.03
2023-02-09T01:36:28.648Z,55.63
2023-02-09T01:38:56.777Z,52.37
2023-02-09T01:41:23.761Z,50.30
2023-02-09T01:44:07.212Z,54.70
2023-02-09T01:46:35.906Z,53.23
2023-02-09T01:49:13.534Z,56.43
2023-02-09T01:52:03.400Z,51.80
2023-02-09T01:54:33.022Z,57.13
2023-02-09T01:57:08.137Z,52.63
2023-02-09T01:59:36.875Z,57.30
2023-02-09T02:02:05.786Z,52.97
2023-02-09T02:04:34.137Z,56.70
2023-02-09T02:07:11.262Z,52.87
2023-02-09T02:09:37.926Z,57.70
2023-02-09T02:12:05.560Z,53.97
2023-02-09T02:14:35.443Z,52.53
2023-02-09T02:17:37.386Z,49.83
2023-02-09T02:20:13.139Z,54.10
2023-02-09T02:22:39.655Z,50.03
2023-02-09T02:25:54.447Z,54.33
2023-02-09T02:28:21.059Z,50.57
2023-02-09T02:31:02.956Z,53.53
2023-02-09T02:33:40.408Z,49.47
2023-02-09T02:36:21.293Z,54.43
2023-02-09T02:39:11.143Z,50.53
2023-02-09T02:42:06.978Z,58.17
2023-02-09T02:44:40.288Z,57.43
2023-02-09T02:47:11.349Z,55.90
2023-02-09T02:49:42.497Z,47.37
2023-02-09T02:52:11.327Z,60.13
2023-02-09T02:54:42.400Z,56.27
2023-02-09T02:57:15.628Z,71.23
2023-02-09T02:59:46.558Z,57.33
2023-02-09T03:02:35.004Z,61.73
2023-02-09T03:05:04.331Z,50.37
2023-02-09T03:07:31.922Z,54.63
2023-02-09T03:09:58.696Z,51.17
2023-02-09T03:12:51.089Z,51.07
2023-02-09T03:15:40.272Z,50.70
2023-02-09T03:18:31.196Z,54.43
2023-02-09T03:21:12.198Z,55.83
2023-02-09T03:24:14.481Z,52.27
2023-02-09T03:26:54.370Z,47.10
2023-02-09T03:29:23.823Z,52.97
2023-02-09T03:31:51.198Z,62.30
2023-02-09T03:34:18.773Z,64.33
2023-02-09T03:36:51.872Z,60.03
2023-02-09T03:39:18.573Z,61.50
2023-02-09T03:41:45.287Z,53.47
2023-02-09T03:44:27.117Z,56.57
2023-02-09T03:46:55.782Z,50.07
2023-02-09T03:49:22.988Z,55.10
2023-02-09T03:51:49.746Z,57.03
2023-02-09T03:54:16.496Z,54.93
2023-02-09T03:56:43.165Z,55.53
2023-02-09T03:59:09.881Z,57.40
2023-02-09T04:01:36.667Z,55.57
2023-02-09T04:04:04.155Z,56.83
2023-02-09T04:06:32.244Z,44.70
2023-02-09T04:08:59.824Z,57.77
2023-02-09T04:11:26.942Z,54.80
2023-02-09T04:13:53.838Z,50.17
2023-02-09T04:16:20.652Z,47.00
2023-02-09T04:18:47.458Z,55.17
2023-02-09T04:21:14.171Z,45.83
2023-02-09T04:23:40.944Z,57.47
2023-02-09T04:26:07.629Z,52.60
2023-02-09T04:28:34.843Z,53.13
2023-02-09T04:31:01.585Z,54.37
2023-02-09T04:33:28.363Z,52.47
2023-02-09T04:35:54.995Z,49.43
2023-02-09T04:38:22.369Z,52.23
2023-02-09T04:40:51.000Z,52.07
2023-02-09T04:43:18.494Z,51.90
2023-02-09T04:45:45.775Z,55.30
2023-02-09T04:48:15.039Z,46.33
2023-02-09T04:50:42.429Z,53.57
2023-02-09T04:53:09.203Z,47.90
2023-02-09T04:55:40.364Z,50.70
2023-02-09T04:58:25.526Z,51.70
2023-02-09T05:00:55.380Z,49.67
2023-02-09T05:03:24.489Z,50.20
2023-02-09T05:05:58.574Z,47.37
2023-02-09T05:08:25.453Z,50.53
2023-02-09T05:10:53.175Z,48.60
2023-02-09T05:13:21.320Z,48.90
2023-02-09T05:15:48.102Z,44.47
2023-02-09T05:18:14.951Z,47.07
2023-02-09T05:20:43.428Z,49.50
2023-02-09T05:23:10.844Z,51.77
2023-02-09T05:25:38.176Z,47.57
2023-02-09T05:28:05.817Z,48.77
2023-02-09T05:30:32.961Z,51.33
2023-02-09T05:32:59.626Z,50.83
2023-02-09T05:35:26.437Z,45.37
2023-02-09T05:37:53.171Z,54.30
2023-02-09T05:40:19.908Z,42.67
2023-02-09T05:42:46.531Z,48.37
2023-02-09T05:45:13.242Z,46.57
2023-02-09T05:47:39.969Z,45.73
2023-02-09T05:50:06.789Z,43.33
2023-02-09T05:52:33.580Z,48.17
2023-02-09T05:55:00.252Z,42.70
2023-02-09T05:57:26.976Z,37.63
2023-02-09T05:59:53.621Z,37.63
2023-02-09T06:02:20.712Z,46.70
2023-02-09T06:04:47.414Z,42.83
2023-02-09T06:07:14.109Z,36.63
2023-02-09T06:09:40.915Z,40.33
2023-02-09T06:12:07.706Z,37.43
2023-02-09T06:14:34.372Z,38.60
2023-02-09T06:17:01.270Z,43.03
2023-02-09T06:19:30.194Z,34.87
2023-02-09T06:21:56.847Z,41.17
2023-02-09T06:24:23.538Z,39.17
2023-02-09T06:26:50.298Z,40.60
2023-02-09T06:29:16.919Z,41.93
2023-02-09T06:31:43.672Z,44.17
2023-02-09T06:34:10.508Z,38.83
2023-02-09T06:36:37.215Z,36.93
2023-02-09T06:39:08.189Z,38.10
2023-02-09T06:41:34.858Z,39.50
2023-02-09T06:44:01.604Z,32.40
2023-02-09T06:46:28.832Z,37.00
2023-02-09T06:48:55.668Z,37.97
2023-02-09T06:51:22.593Z,33.57
2023-02-09T06:53:49.514Z,34.40
2023-02-09T06:56:16.256Z,39.43
2023-02-09T06:58:43.017Z,35.03
2023-02-09T07:01:12.450Z,35.30
2023-02-09T07:03:39.246Z,32.77
2023-02-09T07:06:12.500Z,32.10
2023-02-09T07:08:39.468Z,36.97
2023-02-09T07:11:12.325Z,37.47
2023-02-09T07:13:39.251Z,28.70
2023-02-09T07:16:08.388Z,33.80
2023-02-09T07:18:35.969Z,29.73
2023-02-09T07:21:19.820Z,38.13
2023-02-09T07:23:53.316Z,36.17
2023-02-09T07:26:20.098Z,32.40
2023-02-09T07:28:47.120Z,25.53
2023-02-09T07:31:15.691Z,26.03
2023-02-09T07:33:42.610Z,31.33
2023-02-09T07:36:12.123Z,30.83
2023-02-09T07:38:39.450Z,24.60
2023-02-09T07:41:08.357Z,32.40
2023-02-09T07:43:35.211Z,25.53
2023-02-09T07:46:07.689Z,22.00
2023-02-09T07:48:35.581Z,29.07
2023-02-09T07:51:02.678Z,23.50
2023-02-09T07:53:29.952Z,22.83
2023-02-09T07:55:57.335Z,23.87
2023-02-09T07:58:24.060Z,21.63
2023-02-09T08:00:51.583Z,25.77
2023-02-09T08:03:23.137Z,21.33
2023-02-09T08:06:04.212Z,22.07
2023-02-09T08:08:31.068Z,21.17
2023-02-09T08:10:59.537Z,21.23
2023-02-09T08:13:30.635Z,16.13
2023-02-09T08:16:02.949Z,21.23
2023-02-09T08:18:34.444Z,19.27
2023-02-09T08:21:01.167Z,21.63
2023-02-09T08:23:34.381Z,19.13
2023-02-09T08:26:06.511Z,25.83
2023-02-09T08:28:43.657Z,18.53
2023-02-09T08:31:12.979Z,21.37
2023-02-09T08:33:40.417Z,21.20
2023-02-09T08:36:07.701Z,18.73
2023-02-09T08:38:35.349Z,19.90
2023-02-09T08:41:06.892Z,19.17
2023-02-09T08:43:33.837Z,25.13
2023-02-09T08:46:12.577Z,21.50
2023-02-09T08:48:42.204Z,15.33
2023-02-09T08:51:12.113Z,20.57
2023-02-09T08:53:39.211Z,21.13
2023-02-09T08:56:06.276Z,14.83
2023-02-09T08:58:33.526Z,20.50
2023-02-09T09:01:00.599Z,19.20
2023-02-09T09:03:31.335Z,17.07
2023-02-09T09:05:59.610Z,19.47
2023-02-09T09:08:26.456Z,17.40
2023-02-09T09:10:53.262Z,20.43
2023-02-09T09:13:20.891Z,23.57
2023-02-09T09:15:48.097Z,21.13
2023-02-09T09:18:15.118Z,17.90
2023-02-09T09:20:42.320Z,16.87
2023-02-09T09:23:09.561Z,16.87
2023-02-09T09:25:38.818Z,19.17
2023-02-09T09:28:06.564Z,23.47
2023-02-09T09:30:33.654Z,19.87
2023-02-09T09:33:00.502Z,15.93
2023-02-09T09:35:27.883Z,19.20
2023-02-09T09:37:57.332Z,19.33
2023-02-09T09:40:37.200Z,20.30
2023-02-09T09:43:07.710Z,20.80
2023-02-09T09:45:38.484Z,18.20
2023-02-09T09:48:07.294Z,15.00
2023-02-09T09:50:41.308Z,17.77
2023-02-09T09:53:17.467Z,21.90
2023-02-09T09:55:45.364Z,18.00
2023-02-09T09:58:17.792Z,17.27
2023-02-09T10:00:45.331Z,17.50
2023-02-09T10:03:15.266Z,27.17
2023-02-09T10:05:43.688Z,20.03
2023-02-09T10:08:10.425Z,18.77
2023-02-09T10:10:56.274Z,18.57
2023-02-09T10:13:32.275Z,22.13
2023-02-09T10:15:59.295Z,17.10
2023-02-09T10:18:26.426Z,22.20
2023-02-09T10:20:56.868Z,21.30
2023-02-09T10:23:45.532Z,18.63
2023-02-09T10:26:12.133Z,19.07
2023-02-09T10:28:42.386Z,21.43
2023-02-09T10:31:19.349Z,20.37
2023-02-09T10:33:50.352Z,22.17
2023-02-09T10:36:33.811Z,20.27
2023-02-09T10:39:12.877Z,25.20
2023-02-09T10:41:42.035Z,19.23
2023-02-09T10:44:25.116Z,21.70
2023-02-09T10:47:23.949Z,19.93
2023-02-09T10:50:01.208Z,21.93
2023-02-09T10:52:34.468Z,26.70
2023-02-09T10:55:16.993Z,19.33
2023-02-09T10:57:43.630Z,20.07
2023-02-09T11:00:16.284Z,17.30
2023-02-09T11:02:49.926Z,20.10
2023-02-09T11:05:22.696Z,23.13
2023-02-09T11:07:56.389Z,21.33
2023-02-09T11:10:23.579Z,20.83
2023-02-09T11:12:50.326Z,19.17
2023-02-09T11:15:27.864Z,19.80
2023-02-09T11:18:16.924Z,23.87
2023-02-09T11:20:51.780Z,22.70
2023-02-09T11:23:32.491Z,20.73
2023-02-09T11:26:07.522Z,16.73
2023-02-09T11:28:47.787Z,21.00
2023-02-09T11:31:46.807Z,21.77
2023-02-09T11:34:46.745Z,23.30
2023-02-09T11:37:25.588Z,20.67
2023-02-09T11:40:19.741Z,20.73
2023-02-09T11:43:01.874Z,18.40
2023-02-09T11:45:31.580Z,16.37
2023-02-09T11:48:08.969Z,21.27
2023-02-09T11:51:08.210Z,18.23
2023-02-09T11:53:43.944Z,18.90
2023-02-09T11:56:16.594Z,21.20
2023-02-09T11:59:06.432Z,20.20
2023-02-09T12:01:51.684Z,21.63
2023-02-09T12:04:47.320Z,17.63
2023-02-09T12:07:35.349Z,19.90
2023-02-09T12:10:44.632Z,25.10
2023-02-09T12:13:32.262Z,21.43
2023-02-09T12:16:08.014Z,21.87
2023-02-09T12:18:36.005Z,20.20
2023-02-09T12:21:05.521Z,19.63
2023-02-09T12:23:50.350Z,24.00
2023-02-09T12:26:17.009Z,24.73
2023-02-09T12:29:16.830Z,20.90
2023-02-09T12:32:06.866Z,27.70
2023-02-09T12:34:46.609Z,23.97
2023-02-09T12:37:13.218Z,21.97
2023-02-09T12:40:07.855Z,19.83
2023-02-09T12:42:44.060Z,19.50
2023-02-09T12:45:32.251Z,27.10
2023-02-09T12:48:11.743Z,21.43
2023-02-09T12:50:54.533Z,19.10
2023-02-09T12:53:24.475Z,22.97
2023-02-09T12:56:30.616Z,21.90
2023-02-09T12:59:17.824Z,24.33
2023-02-09T13:02:06.446Z,23.17
2023-02-09T13:04:50.688Z,26.63
2023-02-09T13:07:49.236Z,28.13
2023-02-09T13:10:22.692Z,27.93
2023-02-09T13:13:13.348Z,25.97
2023-02-09T13:16:04.674Z,24.20
2023-02-09T13:18:52.235Z,22.73
2023-02-09T13:21:36.105Z,34.67
2023-02-09T13:24:09.735Z,40.30
2023-02-09T13:26:48.922Z,26.73
2023-02-09T13:29:21.318Z,23.60
2023-02-09T13:32:17.551Z,26.67
2023-02-09T13:34:56.745Z,23.37
2023-02-09T13:37:35.550Z,26.60
2023-02-09T13:40:15.731Z,23.93
2023-02-09T13:42:53.934Z,27.17
2023-02-09T13:45:21.258Z,25.27
2023-02-09T13:47:48.066Z,22.43
2023-02-09T13:50:18.412Z,27.50
2023-02-09T13:52:45.384Z,27.57
2023-02-09T13:55:13.663Z,21.50
2023-02-09T13:57:43.771Z,22.13
2023-02-09T14:00:13.449Z,24.87
2023-02-09T14:02:46.943Z,25.23
2023-02-09T14:05:32.377Z,23.83
2023-02-09T14:07:59.868Z,22.13
2023-02-09T14:10:28.969Z,23.60
2023-02-09T14:13:03.992Z,21.97
2023-02-09T14:15:52.290Z,24.07
2023-02-09T14:18:28.116Z,22.57
2023-02-09T14:21:04.025Z,23.13
2023-02-09T14:23:35.008Z,24.53
2023-02-09T14:26:15.399Z,22.80
2023-02-09T14:28:45.720Z,22.93
2023-02-09T14:31:19.513Z,26.07
2023-02-09T14:33:51.046Z,26.77
2023-02-09T14:36:36.453Z,27.70
2023-02-09T14:39:16.392Z,22.20
2023-02-09T14:42:18.610Z,26.43
2023-02-09T14:44:55.623Z,25.20
2023-02-09T14:47:39.322Z,23.63
2023-02-09T14:50:21.963Z,23.33
2023-02-09T14:52:53.402Z,31.00
2023-02-09T14:55:27.415Z,25.63
2023-02-09T14:57:54.148Z,26.40
2023-02-09T15:00:24.724Z,23.00
2023-02-09T15:02:53.037Z,26.90
2023-02-09T15:05:21.245Z,24.80
2023-02-09T15:07:51.210Z,30.13
2023-02-09T15:10:32.077Z,27.70
2023-02-09T15:12:59.652Z,27.77
2023-02-09T15:15:26.830Z,29.67
2023-02-09T15:17:55.285Z,33.47
2023-02-09T15:20:26.274Z,30.43
2023-02-09T15:22:54.334Z,31.53
2023-02-09T15:25:22.909Z,25.87
2023-02-09T15:27:57.283Z,29.73
2023-02-09T15:30:28.159Z,31.50
2023-02-09T15:32:54.846Z,32.67
2023-02-09T15:35:27.618Z,28.40
2023-02-09T15:38:02.111Z,28.33
2023-02-09T15:40:53.065Z,33.50
2023-02-09T15:43:40.148Z,37.17
2023-02-09T15:46:26.842Z,36.67
2023-02-09T15:48:53.535Z,29.87
2023-02-09T15:51:22.106Z,38.37
2023-02-09T15:53:49.011Z,33.97
2023-02-09T15:56:16.220Z,31.97
2023-02-09T15:58:45.910Z,34.17
2023-02-09T16:01:14.583Z,32.70
2023-02-09T16:03:41.393Z,26.13
2023-02-09T16:06:16.069Z,29.40
2023-02-09T16:08:44.192Z,34.47
2023-02-09T16:11:23.197Z,34.57
2023-02-09T16:13:50.453Z,33.37
2023-02-09T16:16:20.042Z,33.50
2023-02-09T16:18:47.245Z,34.50
2023-02-09T16:21:23.839Z,35.70
2023-02-09T16:23:53.066Z,35.43
2023-02-09T16:26:20.965Z,27.73
2023-02-09T16:28:47.716Z,46.17
2023-02-09T16:31:14.511Z,39.93
2023-02-09T16:33:43.214Z,34.33
2023-02-09T16:36:17.098Z,39.50
2023-02-09T16:38:44.179Z,33.10
2023-02-09T16:41:41.133Z,40.47
2023-02-09T16:44:19.004Z,32.30
2023-02-09T16:46:48.283Z,33.00
2023-02-09T16:49:31.634Z,36.50
2023-02-09T16:52:02.693Z,33.47
2023-02-09T16:54:33.134Z,37.77
2023-02-09T16:57:00.920Z,35.43
2023-02-09T16:59:27.664Z,40.17
2023-02-09T17:01:54.496Z,31.97
2023-02-09T17:04:21.229Z,33.47
2023-02-09T17:06:52.752Z,33.77
2023-02-09T17:09:19.427Z,34.30
2023-02-09T17:11:46.121Z,41.63
2023-02-09T17:14:12.821Z,38.43
2023-02-09T17:16:43.375Z,40.03
2023-02-09T17:19:15.388Z,44.33
2023-02-09T17:21:42.496Z,40.80
2023-02-09T17:24:18.392Z,36.47
2023-02-09T17:26:45.094Z,41.60
2023-02-09T17:29:12.097Z,36.53
2023-02-09T17:31:52.750Z,40.03
2023-02-09T17:34:26.866Z,38.67
2023-02-09T17:36:53.576Z,43.90
2023-02-09T17:39:20.551Z,49.13
2023-02-09T17:41:49.898Z,48.37
2023-02-09T17:44:26.376Z,49.97
2023-02-09T17:46:58.943Z,45.53
2023-02-09T17:49:25.666Z,53.77
2023-02-09T17:51:52.944Z,53.17
2023-02-09T17:54:20.828Z,50.07
2023-02-09T17:56:47.831Z,48.63
2023-02-09T17:59:14.905Z,58.13
2023-02-09T18:01:49.483Z,49.37
2023-02-09T18:04:22.200Z,50.63
2023-02-09T18:06:48.862Z,49.27
2023-02-09T18:09:15.555Z,51.77
2023-02-09T18:11:45.345Z,51.23
2023-02-09T18:14:13.966Z,57.70
2023-02-09T18:16:42.559Z,54.37
2023-02-09T18:19:10.882Z,56.73
2023-02-09T18:21:38.377Z,60.90
2023-02-09T18:24:06.372Z,60.10
2023-02-09T18:26:33.827Z,57.93
2023-02-09T18:29:00.547Z,55.47
2023-02-09T18:31:27.280Z,67.40
2023-02-09T18:33:56.045Z,59.57
2023-02-09T18:36:22.773Z,64.13
2023-02-09T18:38:50.985Z,54.97
2023-02-09T18:41:17.755Z,72.50
2023-02-09T18:43:44.730Z,60.23
2023-02-09T18:46:14.528Z,65.13
2023-02-09T18:48:41.285Z,58.83
2023-02-09T18:51:09.260Z,65.53
2023-02-09T18:53:37.613Z,66.75
2023-02-09T18:56:04.540Z,61.40
2023-02-09T18:58:31.481Z,61.87
2023-02-09T19:00:58.371Z,70.43
2023-02-09T19:03:25.178Z,71.97
2023-02-09T19:05:51.977Z,60.00
2023-02-09T19:08:18.652Z,64.47
2023-02-09T19:10:45.350Z,67.77
2023-02-09T19:13:11.998Z,74.73
2023-02-09T19:15:39.974Z,78.10
2023-02-09T19:18:06.682Z,65.37
2023-02-09T19:20:34.295Z,60.60
2023-02-09T19:23:02.547Z,63.63
2023-02-09T19:25:30.413Z,58.10
2023-02-09T19:27:57.219Z,65.07
2023-02-09T19:30:25.130Z,72.17
2023-02-09T19:32:54.065Z,68.90
2023-02-09T19:35:22.843Z,70.60
2023-02-09T19:37:57.383Z,74.77
2023-02-09T19:40:35.699Z,71.53
2023-02-09T19:43:03.838Z,66.30
2023-02-09T19:45:36.279Z,63.30
2023-02-09T19:48:05.592Z,69.00
2023-02-09T19:50:32.736Z,76.73
2023-02-09T19:52:59.545Z,66.43
2023-02-09T19:55:26.215Z,66.10
2023-02-09T19:57:52.878Z,84.30
2023-02-09T20:00:19.706Z,72.97
2023-02-09T20:02:47.343Z,83.33
2023-02-09T20:05:16.089Z,85.77
2023-02-09T20:07:43.485Z,75.30
2023-02-09T20:10:10.850Z,69.43
2023-02-09T20:12:37.483Z,72.27
2023-02-09T20:15:04.301Z,88.07
2023-02-09T20:17:30.927Z,90.63
2023-02-09T20:19:57.698Z,77.87
2023-02-09T20:22:24.355Z,80.37
2023-02-09T20:24:51.046Z,87.70
2023-02-09T20:27:19.105Z,81.13
2023-02-09T20:29:45.796Z,84.33
2023-02-09T20:32:12.560Z,77.07
2023-02-09T20:34:39.285Z,79.93
2023-02-09T20:37:05.929Z,82.73
2023-02-09T20:39:32.891Z,72.50
2023-02-09T20:42:18.794Z,83.57
2023-02-09T20:45:04.160Z,82.53
2023-02-09T20:47:30.889Z,82.80
2023-02-09T20:50:00.060Z,87.30
2023-02-09T20:52:29.240Z,90.63
2023-02-09T20:54:56.552Z,84.87
2023-02-09T20:57:29.267Z,82.63
2023-02-09T21:00:00.113Z,85.57
2023-02-09T21:02:27.573Z,75.13
2023-02-09T21:04:56.206Z,84.13
2023-02-09T21:07:23.095Z,76.83
2023-02-09T21:09:49.811Z,90.20
2023-02-09T21:12:16.501Z,83.80
2023-02-09T21:14:46.445Z,87.90
2023-02-09T21:17:13.596Z,77.20
2023-02-09T21:19:40.701Z,74.37
2023-02-09T21:22:07.408Z,77.23
2023-02-09T21:24:34.275Z,70.40
2023-02-09T21:27:00.903Z,80.67
2023-02-09T21:29:29.208Z,83.17
2023-02-09T21:31:56.555Z,69.90
2023-02-09T21:34:23.516Z,78.23
2023-02-09T21:36:50.251Z,70.87
2023-02-09T21:39:16.966Z,65.23
2023-02-09T21:42:02.188Z,65.37
2023-02-09T21:44:29.084Z,77.33
2023-02-09T21:46:55.764Z,74.17
2023-02-09T21:49:22.594Z,66.47
2023-02-09T21:51:49.728Z,59.50
2023-02-09T21:54:17.906Z,66.67
2023-02-09T21:56:45.152Z,65.13
2023-02-09T21:59:12.020Z,54.40
2023-02-09T22:01:39.571Z,76.33
2023-02-09T22:04:06.357Z,60.87
2023-02-09T22:06:33.154Z,61.00
2023-02-09T22:09:02.772Z,64.87
2023-02-09T22:11:29.919Z,62.20
2023-02-09T22:13:56.631Z,61.00
2023-02-09T22:16:23.956Z,66.13
2023-02-09T22:18:50.973Z,59.83
2023-02-09T22:21:18.352Z,66.37
2023-02-09T22:23:45.118Z,61.00
2023-02-09T22:26:15.057Z,64.27
2023-02-09T22:28:42.486Z,66.07
2023-02-09T22:31:12.783Z,63.47
2023-02-09T22:33:40.939Z,64.57
2023-02-09T22:36:13.700Z,61.23
2023-02-09T22:38:40.719Z,60.40
2023-02-09T22:41:21.282Z,71.57
2023-02-09T22:43:58.678Z,63.70
2023-02-09T22:46:28.630Z,74.93
2023-02-09T22:48:58.192Z,69.20
2023-02-09T22:51:28.310Z,69.67
2023-02-09T22:53:58.543Z,90.73
2023-02-09T22:56:26.341Z,64.87
2023-02-09T22:58:54.432Z,80.47
2023-02-09T23:01:21.671Z,66.67
2023-02-09T23:03:48.788Z,72.00
2023-02-09T23:06:20.732Z,66.60
2023-02-09T23:08:47.739Z,62.10
2023-02-09T23:11:17.155Z,77.57
2023-02-09T23:13:44.199Z,59.33
2023-02-09T23:16:16.640Z,68.30
2023-02-09T23:18:49.670Z,58.33
2023-02-09T23:21:17.809Z,59.53
2023-02-09T23:23:45.024Z,57.97
2023-02-09T23:26:12.387Z,61.90
2023-02-09T23:28:39.129Z,60.03
2023-02-09T23:31:07.543Z,58.40
2023-02-09T23:33:35.703Z,50.27
2023-02-09T23:36:07.495Z,60.67
2023-02-09T23:38:34.595Z,60.27
2023-02-09T23:41:06.732Z,64.40
2023-02-09T23:43:34.300Z,61.40
2023-02-09T23:46:02.340Z,59.17
2023-02-09T23:48:29.091Z,52.53
2023-02-09T23:51:04.185Z,62.30
2023-02-09T23:53:31.463Z,53.93
2023-02-09T23:56:03.785Z,54.67
2023-02-09T23:58:39.247Z,59.43
